Time;durP1;ratioP1;P1;durP2;ratioP2;P2;SDS_P1;SDS_P2;PMS_P1;PMS_P2;Temp;Humidity;BMP_temperature;BMP_pressure;BME280_temperature;BME280_humidity;BME280_pressure;Samples;Min_cycle;Max_cycle;Signal;HPM_P1;HPM_P2
2021/12/05 00:17:23;;;;;;;6.40;5.80;;;1.40;99.90;;;;;;5110869;27;20208;-42
2021/12/05 00:20:01;;;;;;;7.00;5.77;;;1.40;99.90;;;;;;5103145;27;20266;-42
2021/12/05 00:22:35;;;;;;;6.27;5.03;;;1.40;99.90;;;;;;5094020;27;20230;-41
2021/12/05 00:25:08;;;;;;;7.07;5.97;;;1.50;99.90;;;;;;5094318;28;20296;-41
2021/12/05 00:27:41;;;;;;;6.50;5.23;;;1.40;99.90;;;;;;5096548;28;20232;-47
2021/12/05 00:30:26;;;;;;;7.43;5.83;;;1.40;99.90;;;;;;5104188;28;20231;-43
2021/12/05 00:33:05;;;;;;;6.60;5.50;;;1.40;99.90;;;;;;5093804;28;20216;-42
2021/12/05 00:36:29;;;;;;;6.57;5.37;;;1.40;99.90;;;;;;5093457;28;20209;-41
2021/12/05 00:39:18;;;;;;;6.60;5.50;;;1.40;99.90;;;;;;5091712;27;20558;-46
2021/12/05 00:42:08;;;;;;;6.37;5.30;;;1.40;99.90;;;;;;5102627;28;20185;-41
2021/12/05 00:45:10;;;;;;;6.73;5.80;;;1.40;99.90;;;;;;5101329;28;20208;-42
2021/12/05 00:47:47;;;;;;;5.77;4.87;;;1.50;99.90;;;;;;5094761;28;20204;-42
2021/12/05 00:53:27;;;;;;;6.17;5.00;;;1.50;99.90;;;;;;5083946;27;20200;-42
2021/12/05 00:56:02;;;;;;;5.77;5.00;;;1.50;99.90;;;;;;5102906;28;20254;-42
2021/12/05 01:04:29;;;;;;;6.13;4.97;;;1.50;99.90;;;;;;5088520;28;20223;-43
2021/12/05 01:07:28;;;;;;;7.00;5.13;;;1.50;99.90;;;;;;5102199;28;20249;-42
2021/12/05 01:10:08;;;;;;;5.87;4.77;;;1.50;99.90;;;;;;5096614;28;20669;-42
2021/12/05 01:12:45;;;;;;;6.27;5.57;;;1.50;99.90;;;;;;5099382;28;20203;-41
2021/12/05 01:15:21;;;;;;;5.23;4.73;;;1.50;99.90;;;;;;5103457;28;20209;-45
2021/12/05 01:18:00;;;;;;;7.00;5.10;;;1.50;99.90;;;;;;5100151;28;21080;-43
2021/12/05 01:20:29;;;;;;;6.50;5.30;;;1.50;99.90;;;;;;5127868;27;20208;-41
2021/12/05 01:23:06;;;;;;;6.57;5.60;;;1.50;99.90;;;;;;5103126;28;20263;-42
2021/12/05 01:25:41;;;;;;;6.03;5.20;;;1.50;99.90;;;;;;5085348;27;20227;-41
2021/12/05 01:28:16;;;;;;;5.97;5.23;;;1.50;99.90;;;;;;5101024;28;20722;-44
2021/12/05 01:30:51;;;;;;;6.53;5.30;;;1.50;99.90;;;;;;5099984;28;20191;-47
2021/12/05 01:33:25;;;;;;;6.60;5.17;;;1.50;99.90;;;;;;5100116;27;20201;-42
2021/12/05 01:36:05;;;;;;;6.83;4.90;;;1.50;99.90;;;;;;5098037;28;20265;-44
2021/12/05 01:38:49;;;;;;;5.30;4.80;;;1.50;99.90;;;;;;5088016;27;20573;-44
2021/12/05 01:42:02;;;;;;;6.63;5.43;;;1.50;99.90;;;;;;5089069;27;20207;-42
2021/12/05 01:45:06;;;;;;;5.90;5.30;;;1.50;99.90;;;;;;5099430;28;20204;-44
2021/12/05 01:48:02;;;;;;;6.03;5.27;;;1.50;99.90;;;;;;5096704;28;20205;-42
2021/12/05 01:53:45;;;;;;;7.53;5.67;;;1.50;99.90;;;;;;5101361;28;20697;-41
2021/12/05 02:02:25;;;;;;;6.40;5.43;;;1.60;99.90;;;;;;5090687;28;20504;-43
2021/12/05 02:16:00;;;;;;;6.47;5.30;;;1.50;99.90;;;;;;5100105;28;20200;-43
2021/12/05 02:30:00;;;;;;;6.80;5.73;;;1.60;99.90;;;;;;5094550;28;20212;-45
2021/12/05 02:35:24;;;;;;;6.27;5.13;;;1.60;99.90;;;;;;5094720;28;20748;-44
2021/12/05 02:38:16;;;;;;;8.17;6.00;;;1.60;99.90;;;;;;5095933;28;20277;-43
2021/12/05 02:41:00;;;;;;;7.07;5.47;;;1.60;99.90;;;;;;5101014;28;20204;-44
2021/12/05 02:43:31;;;;;;;7.00;5.53;;;1.60;99.90;;;;;;5086891;28;20204;-42
2021/12/05 02:46:01;;;;;;;7.43;5.93;;;1.60;99.90;;;;;;5102148;28;20193;-42
2021/12/05 02:48:30;;;;;;;7.83;6.00;;;1.60;99.90;;;;;;5099995;28;20215;-46
2021/12/05 02:50:58;;;;;;;6.90;6.00;;;1.60;99.90;;;;;;5102119;28;20304;-44
2021/12/05 02:53:33;;;;;;;7.07;6.23;;;1.60;99.90;;;;;;5098754;28;20205;-42
2021/12/05 02:56:01;;;;;;;9.03;6.37;;;1.70;99.90;;;;;;5100512;28;20540;-44
2021/12/05 02:58:38;;;;;;;7.67;5.50;;;1.60;99.90;;;;;;5085987;28;20224;-42
2021/12/05 03:01:15;;;;;;;7.60;6.07;;;1.60;99.90;;;;;;5101262;28;20609;-42
2021/12/05 03:03:44;;;;;;;6.43;5.53;;;1.60;99.90;;;;;;5092131;28;20204;-41
2021/12/05 03:06:17;;;;;;;6.70;5.10;;;1.70;99.90;;;;;;5102873;28;20291;-42
2021/12/05 03:08:46;;;;;;;8.27;6.13;;;1.70;99.90;;;;;;5094501;28;20509;-41
2021/12/05 03:11:13;;;;;;;7.37;6.20;;;1.60;99.90;;;;;;5102985;28;20201;-42
2021/12/05 03:13:41;;;;;;;6.20;5.13;;;1.60;99.90;;;;;;5088912;28;20235;-41
2021/12/05 03:16:11;;;;;;;6.63;5.93;;;1.60;99.90;;;;;;5102747;28;20204;-42
2021/12/05 03:18:38;;;;;;;9.30;6.27;;;1.60;99.90;;;;;;5103263;28;20219;-44
2021/12/05 03:21:07;;;;;;;7.87;6.57;;;1.60;99.90;;;;;;5106969;28;20200;-48
2021/12/05 03:23:36;;;;;;;8.53;6.50;;;1.60;99.90;;;;;;5101509;28;20308;-44
2021/12/05 03:26:06;;;;;;;7.77;6.57;;;1.60;99.90;;;;;;5099574;28;20213;-46
2021/12/05 03:28:34;;;;;;;8.00;6.57;;;1.60;99.90;;;;;;5101018;28;20213;-43
2021/12/05 03:31:02;;;;;;;9.57;7.10;;;1.60;99.90;;;;;;5089411;27;20216;-42
2021/12/05 03:33:29;;;;;;;9.97;6.43;;;1.60;99.90;;;;;;5096170;28;20209;-43
2021/12/05 03:35:57;;;;;;;9.10;6.43;;;1.60;99.90;;;;;;5105337;28;20204;-45
2021/12/05 03:38:24;;;;;;;9.97;7.03;;;1.70;99.90;;;;;;5101656;28;20213;-44
2021/12/05 03:40:51;;;;;;;8.97;7.53;;;1.70;99.90;;;;;;5100727;28;20300;-46
2021/12/05 03:43:22;;;;;;;10.27;7.23;;;1.70;99.90;;;;;;5103801;28;20204;-43
2021/12/05 03:45:52;;;;;;;9.03;6.70;;;1.70;99.90;;;;;;5095856;27;20966;-43
2021/12/05 03:48:21;;;;;;;9.43;7.23;;;1.70;99.90;;;;;;5097211;28;20551;-45
2021/12/05 03:50:49;;;;;;;12.10;8.03;;;1.70;99.90;;;;;;5102171;28;20673;-44
2021/12/05 03:53:17;;;;;;;10.67;7.17;;;1.70;99.90;;;;;;5102943;27;20247;-44
2021/12/05 03:55:50;;;;;;;8.80;7.47;;;1.70;99.90;;;;;;5127716;27;20330;-46
2021/12/05 03:58:19;;;;;;;9.30;7.30;;;1.70;99.90;;;;;;5104459;27;20215;-45
2021/12/05 04:00:51;;;;;;;9.47;7.77;;;1.70;99.90;;;;;;5093667;27;20726;-43
2021/12/05 04:03:19;;;;;;;11.30;8.10;;;1.70;99.90;;;;;;5119210;27;20727;-45
2021/12/05 04:05:48;;;;;;;9.67;7.17;;;1.70;99.90;;;;;;5101663;28;20186;-43
2021/12/05 04:08:16;;;;;;;10.50;7.30;;;1.70;99.90;;;;;;5104936;28;20285;-42
2021/12/05 04:10:46;;;;;;;9.80;7.57;;;1.70;99.90;;;;;;5098391;28;20303;-43
2021/12/05 04:13:14;;;;;;;12.33;6.97;;;1.70;99.90;;;;;;5112646;27;20208;-42
2021/12/05 04:15:43;;;;;;;12.00;8.13;;;1.60;99.90;;;;;;5075409;27;20207;-45
2021/12/05 04:18:13;;;;;;;10.67;7.87;;;1.60;99.90;;;;;;5097124;28;20317;-43
2021/12/05 04:20:39;;;;;;;17.10;8.67;;;1.70;99.90;;;;;;5102595;28;20184;-43
2021/12/05 04:23:06;;;;;;;12.87;8.27;;;1.70;99.90;;;;;;5104615;28;20269;-44
2021/12/05 04:25:35;;;;;;;12.60;8.13;;;1.70;99.90;;;;;;5094810;28;20296;-46
2021/12/05 04:28:03;;;;;;;11.77;8.93;;;1.70;99.90;;;;;;5098898;28;20244;-43
2021/12/05 04:30:30;;;;;;;12.43;8.90;;;1.70;99.90;;;;;;5100268;28;20319;-44
2021/12/05 04:32:58;;;;;;;13.50;8.40;;;1.70;99.90;;;;;;5126429;27;20216;-45
2021/12/05 04:35:27;;;;;;;14.50;8.90;;;1.70;99.90;;;;;;5101148;28;20594;-42
2021/12/05 04:37:53;;;;;;;13.30;8.43;;;1.70;99.90;;;;;;5103663;28;20234;-44
2021/12/05 04:40:21;;;;;;;14.37;8.83;;;1.70;99.90;;;;;;5102032;28;20740;-42
2021/12/05 04:42:49;;;;;;;13.33;8.60;;;1.70;99.90;;;;;;5096291;28;20257;-43
2021/12/05 04:45:20;;;;;;;11.20;8.27;;;1.60;99.90;;;;;;5098194;28;20299;-42
2021/12/05 04:47:50;;;;;;;11.80;9.00;;;1.70;99.90;;;;;;5085898;27;20786;-44
2021/12/05 04:50:17;;;;;;;13.57;8.90;;;1.60;99.90;;;;;;5096488;27;20552;-43
2021/12/05 04:52:47;;;;;;;14.10;8.50;;;1.70;99.90;;;;;;5101614;28;20196;-41
2021/12/05 04:55:16;;;;;;;17.63;10.73;;;1.70;99.90;;;;;;5102395;27;20300;-43
2021/12/05 04:57:43;;;;;;;15.90;9.73;;;1.70;99.90;;;;;;5099293;28;20887;-43
2021/12/05 05:00:16;;;;;;;18.00;9.47;;;1.70;99.90;;;;;;5099366;27;20197;-42
2021/12/05 05:02:43;;;;;;;20.43;10.10;;;1.70;99.90;;;;;;5092754;27;22249;-41
2021/12/05 05:05:11;;;;;;;16.80;10.27;;;1.70;99.90;;;;;;5108254;27;20254;-42
2021/12/05 05:07:40;;;;;;;18.77;9.93;;;1.70;99.90;;;;;;5099785;28;20208;-44
2021/12/05 05:10:13;;;;;;;17.07;9.53;;;1.60;99.90;;;;;;5099970;28;20296;-42
2021/12/05 05:12:40;;;;;;;19.07;10.23;;;1.70;99.90;;;;;;5101858;28;20197;-43
2021/12/05 05:15:09;;;;;;;17.90;10.37;;;1.60;99.90;;;;;;5096245;28;20216;-43
2021/12/05 05:17:37;;;;;;;17.30;10.10;;;1.70;99.90;;;;;;5097108;28;20237;-44
2021/12/05 05:20:14;;;;;;;23.07;11.50;;;1.70;99.90;;;;;;5093797;27;20205;-44
2021/12/05 05:22:46;;;;;;;18.20;10.40;;;1.70;99.90;;;;;;5101437;28;20216;-42
2021/12/05 05:25:58;;;;;;;19.40;10.23;;;1.70;99.90;;;;;;5104462;28;20205;-44
2021/12/05 05:28:50;;;;;;;17.43;10.63;;;1.70;99.90;;;;;;5102335;27;20280;-42
2021/12/05 05:39:55;;;;;;;20.70;11.53;;;1.60;99.90;;;;;;5095597;28;20223;-46
2021/12/05 05:43:02;;;;;;;19.70;10.83;;;1.60;99.90;;;;;;5102208;28;20609;-41
2021/12/05 05:45:54;;;;;;;21.40;11.30;;;1.70;99.90;;;;;;5101056;28;20283;-42
2021/12/05 05:51:09;;;;;;;20.57;11.47;;;1.70;99.90;;;;;;5101194;27;20311;-44
2021/12/05 05:53:37;;;;;;;21.00;11.23;;;1.70;99.90;;;;;;5093777;28;20211;-45
2021/12/05 05:56:05;;;;;;;19.13;11.10;;;1.60;99.90;;;;;;5096696;28;20212;-42
2021/12/05 05:58:41;;;;;;;24.13;12.07;;;1.70;99.90;;;;;;5095354;28;21080;-41
2021/12/05 06:01:18;;;;;;;17.53;11.33;;;1.60;99.90;;;;;;5107733;27;20199;-42
2021/12/05 06:03:45;;;;;;;21.23;11.97;;;1.70;99.90;;;;;;5093188;28;20192;-45
2021/12/05 06:06:14;;;;;;;17.77;10.50;;;1.60;99.90;;;;;;5091611;28;20205;-42
2021/12/05 06:08:42;;;;;;;19.63;10.87;;;1.60;99.90;;;;;;5090770;28;20721;-45
2021/12/05 06:11:11;;;;;;;19.70;11.57;;;1.60;99.90;;;;;;5097683;28;20251;-45
2021/12/05 06:13:40;;;;;;;18.57;11.97;;;1.70;99.90;;;;;;5094701;28;20413;-42
2021/12/05 06:16:08;;;;;;;19.57;10.93;;;1.70;99.90;;;;;;5100811;28;20201;-42
2021/12/05 06:18:35;;;;;;;26.07;11.73;;;1.70;99.90;;;;;;5085885;28;20799;-45
2021/12/05 06:21:04;;;;;;;21.40;11.20;;;1.70;99.90;;;;;;5090412;28;20228;-45
2021/12/05 06:23:30;;;;;;;21.20;11.27;;;1.70;99.90;;;;;;5097854;28;20199;-44
2021/12/05 06:25:57;;;;;;;19.33;11.40;;;1.70;99.90;;;;;;5097078;28;20200;-42
2021/12/05 06:28:31;;;;;;;18.67;10.60;;;1.70;99.90;;;;;;5091728;28;20612;-42
2021/12/05 06:31:08;;;;;;;17.67;11.23;;;1.70;99.90;;;;;;5095412;28;20266;-43
2021/12/05 06:42:20;;;;;;;16.77;10.57;;;1.70;99.90;;;;;;5099603;28;20272;-42
2021/12/05 06:47:34;;;;;;;15.47;9.93;;;1.70;99.90;;;;;;5093427;28;20248;-42
2021/12/05 06:50:01;;;;;;;17.60;10.13;;;1.70;99.90;;;;;;5095731;28;20581;-41
2021/12/05 06:52:28;;;;;;;18.13;11.03;;;1.70;99.90;;;;;;5092227;27;20785;-42
2021/12/05 06:54:55;;;;;;;18.83;10.70;;;1.70;99.90;;;;;;5107233;28;20200;-42
2021/12/05 06:57:22;;;;;;;20.17;10.77;;;1.70;99.90;;;;;;5102352;28;20205;-43
2021/12/05 06:59:49;;;;;;;17.23;10.47;;;1.80;99.90;;;;;;5103371;28;20858;-42
2021/12/05 07:02:19;;;;;;;18.10;10.87;;;1.80;99.90;;;;;;5095877;27;20197;-44
2021/12/05 07:05:04;;;;;;;16.77;10.53;;;1.70;99.90;;;;;;5099766;28;20242;-42
2021/12/05 07:07:34;;;;;;;17.07;10.07;;;1.70;99.90;;;;;;5086087;27;20228;-43
2021/12/05 07:10:01;;;;;;;17.17;10.53;;;1.70;99.90;;;;;;5107202;27;20205;-42
2021/12/05 07:13:17;;;;;;;15.50;10.97;;;1.80;99.90;;;;;;5097338;28;20201;-41
2021/12/05 07:15:45;;;;;;;17.80;10.20;;;1.80;99.90;;;;;;5094057;28;20289;-44
2021/12/05 07:21:09;;;;;;;14.53;10.37;;;1.70;99.90;;;;;;5097060;28;20276;-42
2021/12/05 07:23:47;;;;;;;18.30;10.30;;;1.70;99.90;;;;;;5090515;27;20294;-42
2021/12/05 07:26:20;;;;;;;16.80;11.20;;;1.80;99.90;;;;;;5103821;28;20250;-42
2021/12/05 07:42:30;;;;;;;20.20;11.00;;;1.80;99.90;;;;;;5093360;28;20250;-44
2021/12/05 07:45:01;;;;;;;17.40;11.37;;;1.80;99.90;;;;;;5102539;28;20193;-42
2021/12/05 07:47:31;;;;;;;17.40;10.93;;;1.80;99.90;;;;;;5094845;27;20254;-43
2021/12/05 07:50:01;;;;;;;18.13;10.70;;;1.80;99.90;;;;;;5106328;28;20228;-41
2021/12/05 07:52:30;;;;;;;20.47;12.03;;;1.80;99.90;;;;;;5093706;28;20193;-41
2021/12/05 07:55:05;;;;;;;20.40;11.30;;;1.70;99.90;;;;;;5094749;27;20223;-42
2021/12/05 07:57:41;;;;;;;19.50;11.17;;;1.80;99.90;;;;;;5100990;28;20276;-41
2021/12/05 08:00:17;;;;;;;17.13;11.93;;;1.70;99.90;;;;;;5103739;28;20193;-42
2021/12/05 08:16:35;;;;;;;19.37;11.23;;;1.80;99.90;;;;;;5098886;27;20196;-42
2021/12/05 08:19:03;;;;;;;20.60;12.20;;;1.80;99.90;;;;;;5095765;27;20978;-44
2021/12/05 08:21:29;;;;;;;17.10;11.40;;;1.80;99.90;;;;;;5105603;28;20186;-45
2021/12/05 08:23:57;;;;;;;17.60;11.53;;;1.80;99.90;;;;;;5092118;27;20212;-43
2021/12/05 08:26:31;;;;;;;18.13;11.93;;;1.80;99.90;;;;;;5094907;27;20287;-43
2021/12/05 08:29:07;;;;;;;16.87;10.80;;;1.80;99.90;;;;;;5101169;27;20228;-41
2021/12/05 08:31:55;;;;;;;19.00;12.20;;;1.80;99.90;;;;;;5103340;28;20736;-44
2021/12/05 08:34:40;;;;;;;18.37;11.23;;;1.80;99.90;;;;;;5093569;28;20194;-43
2021/12/05 08:37:33;;;;;;;17.13;11.47;;;1.80;99.90;;;;;;5100411;28;20193;-44
2021/12/05 08:40:31;;;;;;;15.80;11.27;;;1.80;99.90;;;;;;5093219;27;20185;-42
2021/12/05 09:22:23;;;;;;;16.07;11.10;;;1.90;99.90;;;;;;5102536;28;20462;-42
2021/12/05 09:25:03;;;;;;;15.77;10.17;;;1.90;99.90;;;;;;5109771;28;20274;-42
2021/12/05 09:39:22;;;;;;;17.90;11.50;;;1.90;99.90;;;;;;5106842;27;20342;-45
2021/12/05 10:06:54;;;;;;;15.53;10.90;;;2.00;99.90;;;;;;5097702;28;20705;-42
2021/12/05 10:09:42;;;;;;;17.90;11.87;;;1.90;99.90;;;;;;5102110;28;20221;-41
2021/12/05 10:12:36;;;;;;;16.43;10.57;;;1.90;99.90;;;;;;5091453;28;20220;-43
2021/12/05 10:15:19;;;;;;;16.93;11.73;;;2.00;99.90;;;;;;5100459;28;20203;-45
2021/12/05 10:18:26;;;;;;;19.07;11.77;;;2.00;99.90;;;;;;5084751;27;20248;-42
2021/12/05 10:26:43;;;;;;;16.73;11.37;;;2.00;99.90;;;;;;5082534;28;20307;-46
2021/12/05 10:35:14;;;;;;;19.90;11.93;;;2.00;99.90;;;;;;5103241;28;20210;-43
2021/12/05 10:37:49;;;;;;;16.43;10.60;;;2.00;99.90;;;;;;5098443;28;20224;-41
2021/12/05 10:40:21;;;;;;;17.83;11.77;;;2.00;99.90;;;;;;5098504;28;20184;-44
2021/12/05 10:42:51;;;;;;;19.07;12.27;;;2.00;99.90;;;;;;5099787;28;20208;-44
2021/12/05 10:45:31;;;;;;;18.07;11.90;;;2.00;99.90;;;;;;5098441;28;20248;-44
2021/12/05 10:48:00;;;;;;;19.83;12.27;;;2.00;99.90;;;;;;5083458;28;20577;-43
2021/12/05 10:50:37;;;;;;;20.50;12.17;;;2.00;99.90;;;;;;5102676;28;20189;-48
2021/12/05 10:53:23;;;;;;;19.93;13.40;;;2.10;99.90;;;;;;5096779;28;20669;-44
2021/12/05 10:55:57;;;;;;;17.63;12.60;;;2.10;99.90;;;;;;5087325;28;20208;-42
2021/12/05 10:58:30;;;;;;;19.13;12.50;;;2.10;99.90;;;;;;5089349;28;20235;-41
2021/12/05 11:01:10;;;;;;;19.77;13.53;;;2.20;99.90;;;;;;5100298;28;20204;-45
2021/12/05 11:03:37;;;;;;;22.13;13.90;;;2.20;99.90;;;;;;5090368;28;20201;-46
2021/12/05 11:06:16;;;;;;;18.63;13.40;;;2.30;99.90;;;;;;5099007;28;20221;-42
2021/12/05 11:08:43;;;;;;;24.83;13.30;;;2.30;99.90;;;;;;5093552;28;20224;-45
2021/12/05 11:11:12;;;;;;;18.23;12.83;;;2.30;99.90;;;;;;5095642;28;20189;-44
2021/12/05 11:13:43;;;;;;;21.27;13.53;;;2.30;99.90;;;;;;5096754;28;20569;-46
2021/12/05 11:16:37;;;;;;;18.93;12.77;;;2.40;99.90;;;;;;5094257;28;20196;-45
2021/12/05 11:19:10;;;;;;;18.93;12.10;;;2.40;99.90;;;;;;5083376;28;20232;-42
2021/12/05 11:21:46;;;;;;;20.50;13.73;;;2.40;99.90;;;;;;5098409;28;20534;-44
2021/12/05 11:24:16;;;;;;;18.67;13.53;;;2.40;99.90;;;;;;5091365;28;20201;-44
2021/12/05 11:26:45;;;;;;;21.53;13.80;;;2.40;99.90;;;;;;5095035;28;20228;-45
2021/12/05 11:29:13;;;;;;;20.63;13.27;;;2.40;99.90;;;;;;5094204;28;20826;-43
2021/12/05 11:31:40;;;;;;;21.17;13.87;;;2.40;99.90;;;;;;5096241;28;20251;-44
2021/12/05 11:34:07;;;;;;;20.87;13.60;;;2.40;99.90;;;;;;5087395;28;20757;-42
2021/12/05 11:36:39;;;;;;;20.77;14.53;;;2.50;99.90;;;;;;5103799;28;20205;-45
2021/12/05 11:39:23;;;;;;;18.33;13.13;;;2.40;99.90;;;;;;5094096;28;20774;-43
2021/12/05 11:41:51;;;;;;;21.30;13.43;;;2.40;99.90;;;;;;5095117;28;20202;-45
2021/12/05 11:44:21;;;;;;;23.83;14.80;;;2.40;99.90;;;;;;5093361;28;20432;-43
2021/12/05 11:46:48;;;;;;;22.77;15.67;;;2.40;99.90;;;;;;5095147;28;20213;-43
2021/12/05 11:49:21;;;;;;;20.97;14.03;;;2.40;99.90;;;;;;5084542;28;20217;-47
2021/12/05 11:51:51;;;;;;;26.17;15.30;;;2.50;99.90;;;;;;5096418;28;20247;-42
2021/12/05 11:54:20;;;;;;;22.27;15.47;;;2.50;99.90;;;;;;5093696;28;20193;-44
2021/12/05 11:56:51;;;;;;;21.93;13.93;;;2.50;99.90;;;;;;5101621;28;20208;-43
2021/12/05 11:59:23;;;;;;;25.07;15.83;;;2.40;99.90;;;;;;5087492;28;20213;-43
2021/12/05 12:01:55;;;;;;;21.87;15.07;;;2.40;99.90;;;;;;5089686;28;20197;-41
2021/12/05 12:04:25;;;;;;;21.83;14.70;;;2.50;99.90;;;;;;5098599;28;20292;-41
2021/12/05 12:07:10;;;;;;;21.10;14.03;;;2.50;99.90;;;;;;5080747;28;20685;-43
2021/12/05 12:09:36;;;;;;;21.93;14.37;;;2.50;99.90;;;;;;5096828;28;20279;-42
2021/12/05 12:12:04;;;;;;;24.40;15.80;;;2.40;99.90;;;;;;5098153;28;20197;-42
2021/12/05 12:14:32;;;;;;;23.40;15.07;;;2.40;99.90;;;;;;5096573;28;20209;-42
2021/12/05 12:16:59;;;;;;;27.00;15.30;;;2.50;99.90;;;;;;5095124;28;20205;-47
2021/12/05 12:19:26;;;;;;;22.90;15.00;;;2.50;99.90;;;;;;5103042;28;20210;-44
2021/12/05 12:21:57;;;;;;;20.93;13.57;;;2.50;99.90;;;;;;5085153;28;20204;-43
2021/12/05 12:24:24;;;;;;;24.23;15.00;;;2.40;99.90;;;;;;5098530;28;20242;-43
2021/12/05 12:26:52;;;;;;;25.37;15.50;;;2.40;99.90;;;;;;5093893;28;20205;-43
2021/12/05 12:29:19;;;;;;;26.43;15.60;;;2.50;99.90;;;;;;5089752;28;20911;-44
2021/12/05 12:31:50;;;;;;;23.17;15.47;;;2.50;99.90;;;;;;5098008;28;20575;-43
2021/12/05 12:34:21;;;;;;;27.00;16.73;;;2.50;99.90;;;;;;5100733;28;20658;-44
2021/12/05 12:36:49;;;;;;;26.20;16.63;;;2.50;99.90;;;;;;5090856;28;20216;-45
2021/12/05 12:39:31;;;;;;;24.93;16.13;;;2.50;99.90;;;;;;5097501;28;20225;-44
2021/12/05 12:42:12;;;;;;;17.53;14.10;;;2.50;99.90;;;;;;5094437;28;20697;-42
2021/12/05 12:44:58;;;;;;;24.67;16.07;;;2.50;99.90;;;;;;5093928;28;20304;-43
2021/12/05 12:47:33;;;;;;;25.73;15.33;;;2.50;99.90;;;;;;5099768;28;20205;-42
2021/12/05 12:50:41;;;;;;;25.83;16.20;;;2.50;99.90;;;;;;5087998;28;20197;-43
2021/12/05 12:53:16;;;;;;;25.97;16.60;;;2.50;99.90;;;;;;5044908;28;20243;-45
2021/12/05 12:55:49;;;;;;;25.73;16.03;;;2.50;99.90;;;;;;5096563;28;20193;-46
2021/12/05 12:58:35;;;;;;;23.23;15.97;;;2.50;99.90;;;;;;5096502;28;20227;-44
2021/12/05 13:01:19;;;;;;;28.37;17.07;;;2.50;99.90;;;;;;5088731;28;20216;-42
2021/12/05 13:04:28;;;;;;;34.60;22.17;;;2.50;99.90;;;;;;5101545;28;20467;-45
2021/12/05 13:10:04;;;;;;;23.43;15.53;;;2.50;99.90;;;;;;5095255;28;20204;-45
2021/12/05 13:12:52;;;;;;;27.20;16.30;;;2.50;99.90;;;;;;5093365;28;20197;-42
2021/12/05 13:15:29;;;;;;;26.80;15.80;;;2.40;99.90;;;;;;5094579;28;20204;-43
2021/12/05 13:17:58;;;;;;;24.13;15.27;;;2.40;99.90;;;;;;5096349;28;20225;-42
2021/12/05 13:20:29;;;;;;;24.63;15.57;;;2.40;99.90;;;;;;5095696;28;20268;-44
2021/12/05 13:23:00;;;;;;;25.10;15.93;;;2.40;99.90;;;;;;5078828;28;20197;-43
2021/12/05 13:25:27;;;;;;;25.13;14.70;;;2.40;99.90;;;;;;5094961;28;20227;-43
2021/12/05 13:27:54;;;;;;;23.27;14.67;;;2.40;99.90;;;;;;5092613;28;20453;-43
2021/12/05 13:30:32;;;;;;;24.60;14.97;;;2.40;99.90;;;;;;5103342;28;20273;-43
2021/12/05 13:33:16;;;;;;;26.30;15.67;;;2.30;99.90;;;;;;5090769;28;20265;-43
2021/12/05 13:35:45;;;;;;;26.17;16.10;;;2.30;99.90;;;;;;5103200;28;20185;-42
2021/12/05 13:38:34;;;;;;;23.73;15.97;;;2.30;99.90;;;;;;5086760;28;20228;-46
2021/12/05 13:41:14;;;;;;;23.17;14.37;;;2.30;99.90;;;;;;5104651;28;20205;-43
2021/12/05 13:43:42;;;;;;;24.67;15.50;;;2.30;99.90;;;;;;5092016;28;20198;-43
2021/12/05 13:46:35;;;;;;;23.30;14.70;;;2.30;99.90;;;;;;5105586;28;20217;-43
2021/12/05 13:49:22;;;;;;;24.47;14.87;;;2.20;99.90;;;;;;5101798;28;20221;-43
2021/12/05 13:51:50;;;;;;;27.03;16.00;;;2.20;99.90;;;;;;5091501;28;20189;-44
2021/12/05 13:54:23;;;;;;;22.73;14.73;;;2.20;99.90;;;;;;5093431;28;20210;-45
2021/12/05 13:57:06;;;;;;;23.57;13.57;;;2.10;99.90;;;;;;5096653;28;20467;-43
2021/12/05 13:59:32;;;;;;;21.87;14.77;;;2.10;99.90;;;;;;5096415;28;20232;-44
2021/12/05 14:01:59;;;;;;;23.00;14.67;;;2.10;99.90;;;;;;5105349;28;20208;-43
2021/12/05 14:04:28;;;;;;;24.30;14.97;;;2.00;99.90;;;;;;5095280;28;20437;-43
2021/12/05 14:07:00;;;;;;;22.97;14.10;;;2.00;99.90;;;;;;5104852;28;20298;-45
2021/12/05 14:09:33;;;;;;;21.80;14.23;;;2.00;99.90;;;;;;5088410;28;20246;-44
2021/12/05 14:12:04;;;;;;;21.17;13.83;;;1.90;99.90;;;;;;5090896;28;20551;-44
2021/12/05 14:14:34;;;;;;;19.63;13.30;;;1.90;99.90;;;;;;5088586;28;20212;-43
2021/12/05 14:17:04;;;;;;;21.43;14.50;;;1.80;99.90;;;;;;5097706;28;20223;-45
2021/12/05 14:19:33;;;;;;;20.90;13.90;;;1.80;99.90;;;;;;5085281;28;20868;-45
2021/12/05 14:22:04;;;;;;;18.97;13.03;;;1.80;99.90;;;;;;5104539;28;20208;-44
2021/12/05 14:24:33;;;;;;;23.87;15.07;;;1.80;99.90;;;;;;5090418;28;20209;-44
2021/12/05 14:27:02;;;;;;;22.43;13.83;;;1.70;99.90;;;;;;5097032;28;20378;-45
2021/12/05 14:29:33;;;;;;;17.30;12.53;;;1.70;99.90;;;;;;5098149;28;20225;-43
2021/12/05 14:32:06;;;;;;;20.13;12.77;;;1.70;99.90;;;;;;5092861;28;20677;-44
2021/12/05 14:34:33;;;;;;;19.93;13.07;;;1.70;99.90;;;;;;5092907;28;20220;-46
2021/12/05 14:37:04;;;;;;;18.87;13.07;;;1.60;99.90;;;;;;5094683;28;20212;-45
2021/12/05 14:39:32;;;;;;;18.03;12.00;;;1.60;99.90;;;;;;5096252;28;20214;-44
2021/12/05 14:42:01;;;;;;;15.57;11.87;;;1.60;99.90;;;;;;5083577;28;20209;-43
2021/12/05 14:44:29;;;;;;;18.13;12.10;;;1.60;99.90;;;;;;5099294;28;20216;-44
2021/12/05 14:47:00;;;;;;;18.13;11.33;;;1.60;99.90;;;;;;5094352;28;20244;-43
2021/12/05 14:49:30;;;;;;;16.97;11.67;;;1.50;99.90;;;;;;5085121;28;20217;-46
2021/12/05 14:51:59;;;;;;;18.40;12.03;;;1.50;99.90;;;;;;5095603;28;20198;-45
2021/12/05 14:54:31;;;;;;;17.07;12.27;;;1.50;99.90;;;;;;5100709;28;20200;-43
2021/12/05 14:56:58;;;;;;;18.47;12.53;;;1.50;99.90;;;;;;5091312;28;20602;-42
2021/12/05 14:59:26;;;;;;;18.83;11.67;;;1.50;99.90;;;;;;5097205;28;20213;-46
2021/12/05 15:01:56;;;;;;;19.40;12.40;;;1.50;99.90;;;;;;5100567;28;20197;-45
2021/12/05 15:04:28;;;;;;;20.30;13.53;;;1.50;99.90;;;;;;5085951;28;20950;-46
2021/12/05 15:06:55;;;;;;;18.70;12.17;;;1.50;99.90;;;;;;5098751;28;20220;-43
2021/12/05 15:09:26;;;;;;;18.53;12.20;;;1.50;99.90;;;;;;5101659;28;20201;-45
2021/12/05 15:11:58;;;;;;;19.77;13.27;;;1.50;99.90;;;;;;5103711;28;20531;-47
2021/12/05 15:14:25;;;;;;;16.73;12.23;;;1.50;99.90;;;;;;5093749;27;20205;-43
2021/12/05 15:16:59;;;;;;;21.67;12.17;;;1.50;99.90;;;;;;5100875;28;20849;-44
2021/12/05 15:19:26;;;;;;;19.53;12.70;;;1.50;99.90;;;;;;5096641;28;20293;-45
2021/12/05 15:21:53;;;;;;;21.43;12.97;;;1.50;99.90;;;;;;5100247;28;20212;-48
2021/12/05 15:24:22;;;;;;;19.30;12.80;;;1.50;99.90;;;;;;5096614;28;20208;-44
2021/12/05 15:26:50;;;;;;;21.83;13.97;;;1.50;99.90;;;;;;5101424;28;20208;-50
2021/12/05 15:29:18;;;;;;;19.27;13.43;;;1.50;99.90;;;;;;5081332;28;20979;-45
2021/12/05 15:31:45;;;;;;;20.73;14.07;;;1.50;99.90;;;;;;5095615;28;20197;-44
2021/12/05 15:34:21;;;;;;;20.80;14.17;;;1.40;99.90;;;;;;5094574;28;20204;-43
2021/12/05 15:36:48;;;;;;;16.97;11.80;;;1.40;99.90;;;;;;5097994;28;20200;-45
2021/12/05 15:39:19;;;;;;;21.97;13.30;;;1.40;99.90;;;;;;5089973;28;20225;-47
2021/12/05 15:41:47;;;;;;;22.47;14.20;;;1.40;99.90;;;;;;5099963;28;20661;-44
2021/12/05 15:44:26;;;;;;;19.17;13.10;;;1.40;99.90;;;;;;5081578;28;20325;-44
2021/12/05 15:47:01;;;;;;;19.03;14.03;;;1.40;99.90;;;;;;5095052;28;20232;-44
2021/12/05 15:49:40;;;;;;;22.50;14.63;;;1.40;99.90;;;;;;5093404;28;20231;-43
2021/12/05 15:52:07;;;;;;;21.40;13.43;;;1.40;99.90;;;;;;5090163;28;20454;-44
2021/12/05 15:54:34;;;;;;;20.73;13.13;;;1.40;99.90;;;;;;5097517;28;20209;-45
2021/12/05 15:57:09;;;;;;;21.80;13.47;;;1.40;99.90;;;;;;5097013;28;20586;-46
2021/12/05 15:59:40;;;;;;;20.70;13.27;;;1.40;99.90;;;;;;5087163;28;20212;-44
2021/12/05 16:02:10;;;;;;;20.03;12.97;;;1.40;99.90;;;;;;5097708;28;20929;-46
2021/12/05 16:04:38;;;;;;;23.97;14.23;;;1.40;99.90;;;;;;5100045;28;20566;-48
2021/12/05 16:07:08;;;;;;;20.23;13.37;;;1.40;99.90;;;;;;5094315;28;20221;-45
2021/12/05 16:09:36;;;;;;;19.33;12.03;;;1.40;99.90;;;;;;5089392;28;20206;-47
2021/12/05 16:12:10;;;;;;;19.97;13.00;;;1.40;99.90;;;;;;5095697;28;20228;-43
2021/12/05 16:14:42;;;;;;;21.57;14.73;;;1.40;99.90;;;;;;5085275;28;20204;-43
2021/12/05 16:17:20;;;;;;;27.87;16.70;;;1.40;99.90;;;;;;5092226;28;20213;-49
2021/12/05 16:20:18;;;;;;;17.77;11.77;;;1.50;99.90;;;;;;5100952;28;20284;-44
2021/12/05 16:22:55;;;;;;;18.90;11.77;;;1.50;99.90;;;;;;5098190;28;20206;-43
2021/12/05 16:25:22;;;;;;;20.57;12.47;;;1.50;99.90;;;;;;5095282;28;20732;-43
2021/12/05 16:27:50;;;;;;;16.80;11.43;;;1.50;99.90;;;;;;5094577;28;20240;-45
2021/12/05 16:30:23;;;;;;;19.40;12.43;;;1.50;99.90;;;;;;5088908;28;20256;-45
2021/12/05 16:32:50;;;;;;;20.87;12.63;;;1.50;99.90;;;;;;5096511;28;20205;-49
2021/12/05 16:35:26;;;;;;;22.80;14.17;;;1.50;99.90;;;;;;5099163;28;20202;-48
2021/12/05 16:37:53;;;;;;;23.23;13.70;;;1.50;99.90;;;;;;5095279;28;20217;-47
2021/12/05 16:40:20;;;;;;;25.33;14.77;;;1.50;99.90;;;;;;5096806;28;20208;-46